Time;durP1;ratioP1;P1;durP2;ratioP2;P2;SDS_P1;SDS_P2;PMS_P1;PMS_P2;Temp;Humidity;BMP_temperature;BMP_pressure;BME280_temperature;BME280_humidity;BME280_pressure;Samples;Min_cycle;Max_cycle;Signal;HPM_P1;HPM_P2
2023/09/07 00:00:16;;;;;;;4.53;3.88;;;;;;;21.79;58.72;100264.78;4950556;28;20862;-85
2023/09/07 00:02:43;;;;;;;8.93;3.97;;;;;;;21.75;58.82;100256.22;4926945;28;20051;-85
2023/09/07 00:05:10;;;;;;;9.25;3.75;;;;;;;21.75;58.99;100256.22;4957367;28;20396;-85
2023/09/07 00:07:37;;;;;;;4.78;4.00;;;;;;;21.72;58.81;100259.31;4924695;28;20061;-85
2023/09/07 00:10:05;;;;;;;6.40;3.95;;;;;;;21.70;58.81;100261.38;4932289;28;20071;-85
2023/09/07 00:12:33;;;;;;;5.18;3.42;;;;;;;21.68;59.02;100266.16;4942900;28;20395;-85
2023/09/07 00:15:00;;;;;;;5.35;3.83;;;;;;;21.64;58.87;100257.59;4944946;28;20050;-85
2023/09/07 00:17:29;;;;;;;4.93;4.00;;;;;;;21.64;58.96;100263.00;4942397;28;20058;-85
2023/09/07 00:19:58;;;;;;;6.43;3.88;;;;;;;21.64;59.26;100262.19;4926222;28;20066;-85
2023/09/07 00:22:25;;;;;;;5.35;3.60;;;;;;;21.60;59.30;100252.78;4930784;28;20054;-85
2023/09/07 00:24:52;;;;;;;6.32;3.95;;;;;;;21.57;59.35;100256.72;4955290;28;20444;-85
2023/09/07 00:27:19;;;;;;;4.80;3.40;;;;;;;21.56;59.39;100268.56;4920407;28;20138;-85
2023/09/07 00:29:46;;;;;;;5.80;4.05;;;;;;;21.55;59.50;100263.34;4944892;28;20055;-85
2023/09/07 00:32:13;;;;;;;6.15;4.00;;;;;;;21.46;59.87;100257.28;4961936;28;20129;-86
2023/09/07 00:34:40;;;;;;;4.97;3.80;;;;;;;21.50;59.75;100257.69;4943731;28;20051;-85
2023/09/07 00:37:07;;;;;;;8.93;4.07;;;;;;;21.49;59.97;100258.75;4898987;28;20134;-85
2023/09/07 00:39:34;;;;;;;7.50;3.75;;;;;;;21.42;60.15;100254.13;4958974;28;20047;-86
2023/09/07 00:42:00;;;;;;;5.22;3.63;;;;;;;21.40;60.39;100255.38;4917318;28;20055;-86
2023/09/07 00:44:27;;;;;;;4.90;3.97;;;;;;;21.38;60.32;100260.94;4959160;28;20051;-85
2023/09/07 00:46:56;;;;;;;6.13;3.90;;;;;;;21.35;60.44;100255.91;4913194;28;20522;-85
2023/09/07 00:49:24;;;;;;;6.55;3.50;;;;;;;21.35;60.33;100257.78;4945166;28;20110;-85
2023/09/07 00:51:52;;;;;;;6.03;4.07;;;;;;;21.36;60.73;100256.75;4943434;28;20138;-85
2023/09/07 00:54:19;;;;;;;7.10;3.65;;;;;;;21.32;60.48;100253.63;4931959;28;20440;-85
2023/09/07 00:56:46;;;;;;;5.40;4.28;;;;;;;21.31;60.51;100256.50;4943405;28;20404;-85
2023/09/07 00:59:13;;;;;;;9.75;3.70;;;;;;;21.29;60.36;100253.97;4942268;28;20047;-85
2023/09/07 01:01:41;;;;;;;7.45;3.70;;;;;;;21.29;60.35;100258.56;4928594;28;20420;-85
2023/09/07 01:04:09;;;;;;;7.53;4.40;;;;;;;21.25;60.64;100255.41;4911287;28;20038;-85
2023/09/07 01:06:45;;;;;;;7.75;4.25;;;;;;;21.26;60.62;100257.06;4954535;28;20047;-85
2023/09/07 01:09:21;;;;;;;6.30;3.75;;;;;;;21.24;60.94;100254.59;4947243;28;20126;-85
2023/09/07 01:11:48;;;;;;;4.05;3.65;;;;;;;21.28;60.28;100257.72;4914724;28;20058;-85
2023/09/07 01:14:15;;;;;;;5.90;3.85;;;;;;;21.29;60.40;100256.69;4949494;28;20058;-85
2023/09/07 01:16:42;;;;;;;7.97;4.30;;;;;;;21.28;60.54;100252.31;4920211;28;20578;-85
2023/09/07 01:19:10;;;;;;;6.82;3.95;;;;;;;21.24;60.70;100249.19;4944558;28;20749;-85
2023/09/07 01:21:38;;;;;;;4.93;3.67;;;;;;;21.22;60.58;100242.31;4960835;28;20098;-84
2023/09/07 01:24:09;;;;;;;4.18;3.75;;;;;;;21.18;60.40;100244.56;4968063;28;20054;-85
2023/09/07 01:26:38;;;;;;;3.90;3.40;;;;;;;21.19;60.41;100245.38;4959540;28;20047;-85
2023/09/07 01:29:08;;;;;;;4.47;3.45;;;;;;;21.18;60.36;100246.41;4927562;28;20051;-85
2023/09/07 01:31:37;;;;;;;4.95;3.45;;;;;;;21.16;60.42;100254.69;4950815;28;20051;-85
2023/09/07 01:34:06;;;;;;;7.65;3.58;;;;;;;21.13;60.04;100252.41;4958357;28;20051;-85
2023/09/07 01:36:33;;;;;;;4.50;3.90;;;;;;;21.09;60.27;100250.28;4929502;28;20533;-85
2023/09/07 01:39:03;;;;;;;5.97;3.90;;;;;;;21.11;60.17;100250.91;4934060;28;20043;-84
2023/09/07 01:41:30;;;;;;;4.20;3.70;;;;;;;21.07;60.04;100246.97;4962072;28;20051;-84
2023/09/07 01:43:57;;;;;;;5.78;3.60;;;;;;;21.01;60.21;100252.09;4946429;28;20051;-85
2023/09/07 01:46:25;;;;;;;8.73;3.72;;;;;;;20.94;60.39;100253.91;4947237;28;20055;-85
2023/09/07 01:48:52;;;;;;;6.82;3.72;;;;;;;20.96;60.57;100253.69;4937987;28;20053;-85
2023/09/07 01:51:19;;;;;;;5.22;3.50;;;;;;;20.97;60.55;100252.69;4933576;28;20050;-85
2023/09/07 01:53:49;;;;;;;4.00;3.60;;;;;;;20.96;60.42;100251.00;4940748;28;20550;-85
2023/09/07 01:56:16;;;;;;;5.13;3.88;;;;;;;20.94;60.36;100259.31;4944548;28;20063;-85
2023/09/07 01:58:44;;;;;;;4.40;3.90;;;;;;;20.91;60.87;100254.25;4963294;28;20042;-85
2023/09/07 02:01:26;;;;;;;4.82;3.50;;;;;;;20.77;60.89;100245.22;4927401;28;20055;-85
2023/09/07 02:03:53;;;;;;;4.03;3.40;;;;;;;20.83;60.46;100245.47;4957138;28;20141;-85
2023/09/07 02:06:20;;;;;;;4.13;3.70;;;;;;;20.80;60.44;100246.69;4966999;28;20057;-85
2023/09/07 02:08:48;;;;;;;4.10;3.70;;;;;;;20.84;60.57;100247.13;4941655;28;20043;-85
2023/09/07 02:11:15;;;;;;;7.53;3.80;;;;;;;20.82;60.53;100239.25;4945412;28;20045;-86
2023/09/07 02:13:42;;;;;;;6.50;3.65;;;;;;;20.78;60.66;100238.78;4958404;28;20050;-86
2023/09/07 02:16:10;;;;;;;8.40;4.40;;;;;;;20.78;60.98;100243.34;4943030;28;20039;-86
2023/09/07 02:18:39;;;;;;;5.88;4.13;;;;;;;20.79;61.09;100242.34;4930013;28;20498;-86
2023/09/07 02:21:06;;;;;;;4.22;3.83;;;;;;;20.78;61.23;100243.34;4941631;28;20569;-86
2023/09/07 02:23:33;;;;;;;6.22;3.97;;;;;;;20.81;60.87;100240.25;4944459;28;20130;-86
2023/09/07 02:26:00;;;;;;;5.13;3.55;;;;;;;20.79;61.07;100245.88;4954163;28;20062;-86
2023/09/07 02:28:27;;;;;;;4.95;3.80;;;;;;;20.80;61.01;100241.28;4928875;28;20082;-85
2023/09/07 02:30:54;;;;;;;4.93;3.67;;;;;;;20.78;61.06;100243.34;4957096;28;20054;-84
2023/09/07 02:33:21;;;;;;;5.18;4.15;;;;;;;20.75;60.63;100241.88;4933290;28;20053;-84
2023/09/07 02:35:49;;;;;;;4.40;3.65;;;;;;;20.78;60.64;100243.34;4942387;28;20042;-84
2023/09/07 02:38:16;;;;;;;5.10;3.70;;;;;;;20.74;60.59;100239.38;4946057;28;20042;-84
2023/09/07 02:40:43;;;;;;;4.60;3.60;;;;;;;20.69;60.75;100242.66;4933167;28;20055;-84
2023/09/07 02:43:11;;;;;;;5.22;3.55;;;;;;;20.70;60.83;100243.47;4958457;28;20047;-84
2023/09/07 02:45:38;;;;;;;4.78;4.30;;;;;;;20.70;60.78;100243.47;4931200;28;20054;-84
2023/09/07 02:48:05;;;;;;;5.25;3.70;;;;;;;20.68;60.93;100246.34;4944515;28;20051;-85
2023/09/07 02:50:34;;;;;;;4.38;3.63;;;;;;;20.64;60.72;100241.56;4946371;28;20090;-85
2023/09/07 02:53:02;;;;;;;6.95;3.92;;;;;;;20.64;60.96;100238.84;4952469;28;20102;-85
2023/09/07 02:55:29;;;;;;;3.70;3.33;;;;;;;20.61;61.03;100242.78;4960408;28;20047;-85
2023/09/07 02:57:57;;;;;;;4.15;3.28;;;;;;;20.55;61.28;100244.34;4909564;28;20118;-85
2023/09/07 03:00:24;;;;;;;4.32;3.80;;;;;;;20.50;61.56;100246.75;4946495;28;20424;-85
2023/09/07 03:02:52;;;;;;;5.35;3.45;;;;;;;20.56;61.36;100242.50;4925704;28;20051;-84
2023/09/07 03:05:19;;;;;;;4.75;3.60;;;;;;;20.52;61.49;100249.28;4943968;28;20498;-84
2023/09/07 03:07:47;;;;;;;5.82;3.60;;;;;;;20.50;61.79;100241.34;4932309;28;20558;-84
2023/09/07 03:10:15;;;;;;;4.30;3.70;;;;;;;20.48;62.01;100242.56;4927028;28;20057;-84
2023/09/07 03:12:43;;;;;;;8.05;4.28;;;;;;;20.50;61.73;100233.25;4936426;28;20139;-84
2023/09/07 03:15:10;;;;;;;7.30;4.00;;;;;;;20.44;61.75;100223.25;4928391;28;20666;-85
2023/09/07 03:17:37;;;;;;;4.68;3.90;;;;;;;20.46;61.98;100231.16;4928506;28;20171;-85
2023/09/07 03:20:14;;;;;;;4.97;3.38;;;;;;;20.47;61.90;100224.72;4953264;28;20693;-84
2023/09/07 03:22:45;;;;;;;4.30;3.90;;;;;;;20.44;62.06;100225.94;4939522;28;20047;-84
2023/09/07 03:25:12;;;;;;;4.35;3.60;;;;;;;20.43;61.97;100226.97;4947885;28;20051;-84
2023/09/07 03:27:39;;;;;;;6.15;3.63;;;;;;;20.45;61.91;100227.59;4925781;28;20042;-85
2023/09/07 03:30:08;;;;;;;4.65;3.70;;;;;;;20.45;62.11;100227.59;4943769;28;20054;-85
2023/09/07 03:32:36;;;;;;;4.30;3.90;;;;;;;20.44;61.59;100228.63;4913146;28;20043;-85
2023/09/07 03:35:09;;;;;;;6.15;3.90;;;;;;;20.29;61.15;100228.66;4950152;28;20137;-84
2023/09/07 03:37:37;;;;;;;4.47;3.78;;;;;;;20.38;61.09;100232.94;4903118;28;20050;-85
2023/09/07 03:40:05;;;;;;;4.20;3.80;;;;;;;20.38;60.79;100234.81;4912487;28;20046;-85
2023/09/07 03:42:33;;;;;;;5.47;3.78;;;;;;;20.38;60.59;100235.63;4924118;28;20057;-85
2023/09/07 03:45:01;;;;;;;5.15;4.18;;;;;;;20.34;61.27;100226.25;4965023;28;20047;-85
2023/09/07 03:47:29;;;;;;;4.93;4.00;;;;;;;20.41;61.20;100228.19;4917012;28;20038;-85
2023/09/07 03:49:57;;;;;;;5.20;3.85;;;;;;;20.39;61.37;100231.91;4956918;28;20050;-84
2023/09/07 03:52:26;;;;;;;7.65;4.65;;;;;;;20.42;61.43;100232.56;4930309;28;20387;-84
2023/09/07 03:54:56;;;;;;;11.48;4.70;;;;;;;20.38;61.18;100230.25;4946519;28;20069;-84
2023/09/07 03:57:25;;;;;;;5.55;4.05;;;;;;;20.35;61.00;100232.47;4942974;28;20047;-84
2023/09/07 03:59:53;;;;;;;5.45;3.75;;;;;;;20.36;61.34;100237.69;4908855;28;20102;-84
2023/09/07 04:02:20;;;;;;;6.28;4.47;;;;;;;20.33;61.76;100234.53;4931255;28;20494;-85
2023/09/07 04:04:49;;;;;;;4.95;4.30;;;;;;;20.28;61.97;100229.72;4938597;28;20035;-83
2023/09/07 04:07:16;;;;;;;4.63;4.05;;;;;;;20.25;61.21;100237.31;4931368;28;20035;-84
2023/09/07 04:09:44;;;;;;;4.97;4.53;;;;;;;20.25;62.00;100238.19;4931148;28;20406;-84
2023/09/07 04:12:11;;;;;;;6.22;4.50;;;;;;;20.22;61.93;100233.16;4914275;28;20043;-84
2023/09/07 04:14:38;;;;;;;7.60;3.40;;;;;;;20.21;62.06;100228.78;4941950;28;20386;-83
2023/09/07 04:17:06;;;;;;;5.65;4.85;;;;;;;20.20;61.92;100242.44;4931627;28;20159;-82
2023/09/07 04:19:33;;;;;;;5.60;4.25;;;;;;;20.19;62.49;100235.41;4949172;28;20051;-82
2023/09/07 04:22:00;;;;;;;4.68;3.90;;;;;;;20.04;61.74;100238.09;4956352;28;20796;-82
2023/09/07 04:24:29;;;;;;;4.53;4.13;;;;;;;20.15;61.08;100232.25;4930458;28;20042;-84
2023/09/07 04:27:00;;;;;;;6.93;4.10;;;;;;;20.07;60.96;100235.84;4938934;28;20062;-83
2023/09/07 04:29:28;;;;;;;7.55;4.32;;;;;;;20.09;61.02;100235.69;4937975;28;20055;-84
2023/09/07 04:31:55;;;;;;;5.63;4.20;;;;;;;20.04;60.96;100238.09;4944290;28;20046;-84
2023/09/07 04:34:22;;;;;;;6.22;4.10;;;;;;;20.05;60.81;100229.84;4944950;28;20043;-82
2023/09/07 04:36:51;;;;;;;5.75;4.47;;;;;;;20.03;60.63;100229.19;4959035;28;20055;-82
2023/09/07 04:39:19;;;;;;;4.78;4.28;;;;;;;19.99;60.93;100230.56;4945309;28;20038;-81
2023/09/07 04:41:45;;;;;;;5.75;4.57;;;;;;;19.94;60.79;100231.13;4927860;28;20114;-88
2023/09/07 04:44:14;;;;;;;6.20;4.20;;;;;;;19.98;60.95;100236.19;4942770;28;20153;-87
2023/09/07 04:46:41;;;;;;;5.60;4.50;;;;;;;19.89;61.08;100238.94;4933045;28;20046;-88
2023/09/07 04:49:09;;;;;;;4.57;3.85;;;;;;;19.87;61.11;100232.06;4911101;28;20051;-88
2023/09/07 04:51:36;;;;;;;7.30;4.43;;;;;;;19.89;61.15;100240.81;4925757;28;20103;-89
2023/09/07 04:54:03;;;;;;;4.32;3.92;;;;;;;19.84;61.20;100237.84;4926756;28;20051;-87
2023/09/07 04:56:30;;;;;;;8.07;4.45;;;;;;;19.92;61.01;100237.72;4945871;28;20039;-89
2023/09/07 04:58:57;;;;;;;5.03;3.63;;;;;;;19.92;61.03;100240.44;4926688;28;20047;-87
2023/09/07 05:01:25;;;;;;;6.65;4.18;;;;;;;19.94;60.99;100235.69;4915039;28;20755;-87
2023/09/07 05:03:54;;;;;;;5.10;4.40;;;;;;;19.84;61.01;100248.63;4943824;28;20130;-88
2023/09/07 05:06:22;;;;;;;6.07;4.60;;;;;;;19.90;61.20;100256.81;4945496;28;20055;-87
2023/09/07 05:08:50;;;;;;;4.47;4.07;;;;;;;19.89;61.02;100251.59;4939343;28;20267;-88
2023/09/07 05:11:17;;;;;;;6.75;4.50;;;;;;;19.91;61.07;100258.47;4926966;28;20805;-87
2023/09/07 05:13:44;;;;;;;5.57;4.65;;;;;;;19.84;61.26;100259.41;4936893;28;20061;-88
2023/09/07 05:16:11;;;;;;;4.68;4.07;;;;;;;19.79;61.46;100256.41;4940797;28;20597;-87
2023/09/07 05:18:41;;;;;;;4.78;4.13;;;;;;;19.82;61.24;100253.34;4934352;28;20043;-86
2023/09/07 05:21:14;;;;;;;6.68;4.55;;;;;;;19.74;61.65;100256.97;4952576;28;20592;-89
2023/09/07 05:23:42;;;;;;;9.05;4.53;;;;;;;19.78;61.55;100252.06;4927920;28;20767;-87
2023/09/07 05:26:09;;;;;;;7.05;4.80;;;;;;;19.71;61.58;100260.88;4941426;28;20086;-89
2023/09/07 05:28:36;;;;;;;5.25;4.65;;;;;;;19.75;61.70;100255.13;4969879;28;20098;-88
2023/09/07 05:31:03;;;;;;;7.05;5.32;;;;;;;19.80;61.64;100255.41;4909981;28;20047;-87
2023/09/07 05:33:31;;;;;;;4.78;4.28;;;;;;;19.79;61.77;100253.72;4925933;28;20047;-87
2023/09/07 05:35:58;;;;;;;4.72;4.15;;;;;;;19.82;61.86;100259.59;4961432;28;20082;-89
2023/09/07 05:38:25;;;;;;;7.40;4.97;;;;;;;19.87;61.57;100246.41;4931058;28;20530;-88
2023/09/07 05:40:54;;;;;;;6.90;4.22;;;;;;;19.95;61.92;100256.25;4959955;28;20130;-89
2023/09/07 05:43:23;;;;;;;6.00;4.43;;;;;;;19.91;62.02;100265.72;4947337;28;20043;-87
2023/09/07 05:45:50;;;;;;;8.48;4.82;;;;;;;19.88;62.01;100260.72;4944830;28;20047;-88
2023/09/07 05:48:17;;;;;;;9.32;4.80;;;;;;;19.95;62.10;100264.34;4913374;28;20054;-88
2023/09/07 05:50:47;;;;;;;4.78;4.38;;;;;;;19.90;61.99;100259.50;4934925;28;20392;-94
2023/09/07 05:53:20;;;;;;;6.55;4.82;;;;;;;19.97;61.74;100266.81;4954507;28;20479;-93
2023/09/07 05:55:47;;;;;;;11.18;4.75;;;;;;;19.93;61.84;100263.69;4918310;28;20053;-89
2023/09/07 05:58:14;;;;;;;5.68;4.47;;;;;;;19.91;61.93;100266.56;4928408;28;20119;-92
2023/09/07 06:00:43;;;;;;;5.60;4.72;;;;;;;19.94;61.83;100268.88;4944545;28;20047;-90
2023/09/07 06:03:11;;;;;;;7.97;4.82;;;;;;;19.95;61.73;100269.72;4942419;28;20557;-92
2023/09/07 06:05:39;;;;;;;7.75;4.75;;;;;;;19.99;61.79;100279.09;4964801;28;22512;-85
2023/09/07 06:08:08;;;;;;;7.28;5.10;;;;;;;20.03;61.73;100271.50;4952063;28;20128;-84
2023/09/07 06:10:35;;;;;;;5.75;4.80;;;;;;;20.07;62.08;100280.84;4941069;28;20047;-85
2023/09/07 06:13:03;;;;;;;6.20;4.60;;;;;;;20.06;61.89;100285.41;4923174;28;20102;-83
2023/09/07 06:15:31;;;;;;;5.30;4.65;;;;;;;20.07;62.20;100278.16;4940887;28;20043;-84
2023/09/07 06:17:58;;;;;;;7.22;4.70;;;;;;;20.05;62.26;100281.06;4942805;28;20134;-85
2023/09/07 06:20:25;;;;;;;6.93;4.57;;;;;;;20.08;61.97;100278.00;4955769;28;20051;-85
2023/09/07 06:22:53;;;;;;;7.97;4.85;;;;;;;20.06;62.65;100271.13;4920401;28;20573;-82
2023/09/07 06:25:22;;;;;;;6.00;4.82;;;;;;;20.06;62.51;100276.50;4953331;28;20514;-83
2023/09/07 06:27:49;;;;;;;6.30;5.40;;;;;;;20.08;62.73;100282.56;4928078;28;20077;-81
2023/09/07 06:30:16;;;;;;;7.90;4.78;;;;;;;20.10;62.46;100283.22;4929787;28;20074;-85
2023/09/07 06:32:43;;;;;;;7.72;4.75;;;;;;;20.14;62.33;100277.22;4926021;28;20051;-84
2023/09/07 06:35:11;;;;;;;7.18;4.72;;;;;;;20.23;62.40;100277.16;4927498;28;20506;-82
2023/09/07 06:37:40;;;;;;;7.30;5.75;;;;;;;20.26;62.12;100269.50;4928666;28;20050;-83
2023/09/07 06:40:09;;;;;;;8.32;5.05;;;;;;;20.29;62.36;100276.38;4922017;28;20075;-83
2023/09/07 06:42:37;;;;;;;8.20;5.07;;;;;;;20.31;61.93;100285.13;4937845;28;20054;-83
2023/09/07 06:45:12;;;;;;;7.03;5.10;;;;;;;20.26;61.97;100272.22;4912549;28;20158;-83
2023/09/07 06:47:39;;;;;;;5.68;5.05;;;;;;;20.34;62.27;100284.75;4930079;28;20133;-83
2023/09/07 06:50:08;;;;;;;5.65;5.00;;;;;;;20.28;62.73;100285.50;4928254;28;20043;-83
2023/09/07 06:52:35;;;;;;;10.60;4.82;;;;;;;20.30;62.87;100276.22;4910968;28;20435;-85
2023/09/07 06:55:02;;;;;;;8.98;4.90;;;;;;;20.34;62.78;100285.56;4936897;28;20075;-84
2023/09/07 06:57:29;;;;;;;5.38;4.65;;;;;;;20.30;62.86;100287.00;4942733;28;20564;-85
2023/09/07 06:59:56;;;;;;;5.82;5.15;;;;;;;20.36;63.05;100280.00;4940583;28;20059;-84
2023/09/07 07:02:23;;;;;;;7.35;4.88;;;;;;;20.46;63.10;100283.25;4938748;28;20061;-83
2023/09/07 07:04:51;;;;;;;7.25;5.10;;;;;;;20.49;62.86;100280.16;4928038;28;20066;-83
2023/09/07 07:07:18;;;;;;;6.55;5.10;;;;;;;20.50;62.94;100276.44;4926728;28;20496;-83
2023/09/07 07:09:45;;;;;;;5.70;4.75;;;;;;;20.57;62.96;100280.06;4959828;28;20099;-83
2023/09/07 07:12:12;;;;;;;6.05;5.35;;;;;;;20.62;62.84;100273.28;4928131;28;20399;-92
2023/09/07 07:14:39;;;;;;;5.65;5.13;;;;;;;20.62;63.11;100281.38;4919062;28;20138;-84
2023/09/07 07:17:06;;;;;;;6.65;5.07;;;;;;;20.64;62.61;100292.81;4938039;28;20055;-83
2023/09/07 07:19:34;;;;;;;4.97;4.53;;;;;;;20.64;62.88;100290.97;4941434;28;20062;-83
2023/09/07 07:22:03;;;;;;;6.53;4.72;;;;;;;20.69;63.06;100283.13;4945295;28;20051;-84
2023/09/07 07:24:31;;;;;;;7.93;5.20;;;;;;;20.69;62.81;100282.28;4962340;28;20054;-82
2023/09/07 07:26:58;;;;;;;6.07;5.20;;;;;;;20.79;63.01;100290.91;4921888;28;20114;-83
2023/09/07 07:29:29;;;;;;;4.93;4.40;;;;;;;20.79;62.53;100283.66;4946965;28;20046;-83
2023/09/07 07:32:00;;;;;;;6.90;4.50;;;;;;;20.81;62.87;100276.19;4918980;28;20445;-84
2023/09/07 07:34:27;;;;;;;5.45;4.95;;;;;;;20.88;62.93;100273.56;4917575;28;20046;-84
2023/09/07 07:36:55;;;;;;;8.45;5.60;;;;;;;20.93;62.98;100286.47;4932326;28;20065;-92
2023/09/07 07:39:22;;;;;;;6.38;4.60;;;;;;;20.96;62.66;100275.28;4939942;28;20122;-91
2023/09/07 07:41:49;;;;;;;4.95;4.45;;;;;;;21.01;62.65;100275.53;4965217;28;20051;-91
2023/09/07 07:44:17;;;;;;;5.93;5.30;;;;;;;21.04;62.40;100264.38;4935963;28;20460;-91
2023/09/07 07:46:45;;;;;;;7.28;5.05;;;;;;;21.10;62.65;100266.28;4938364;28;20051;-93
2023/09/07 07:49:14;;;;;;;7.03;5.18;;;;;;;21.13;62.36;100265.91;4944406;28;20038;-93
2023/09/07 07:51:41;;;;;;;8.90;4.75;;;;;;;21.19;62.49;100267.84;4937596;28;20044;-93
2023/09/07 07:54:09;;;;;;;5.28;4.57;;;;;;;21.24;62.53;100267.22;4920474;28;20549;-92
2023/09/07 07:56:38;;;;;;;5.32;4.53;;;;;;;21.29;62.54;100258.56;4928265;28;20074;-91
2023/09/07 07:59:05;;;;;;;8.65;5.85;;;;;;;21.33;62.42;100260.66;4966047;28;20046;-93
2023/09/07 08:01:32;;;;;;;6.10;4.70;;;;;;;21.39;62.35;100262.59;4953622;28;20043;-93
2023/09/07 08:04:00;;;;;;;5.25;4.75;;;;;;;21.41;62.01;100265.13;4936945;28;20121;-93
2023/09/07 08:06:31;;;;;;;5.82;4.82;;;;;;;21.44;61.00;100254.75;4922475;28;20502;-91
2023/09/07 08:08:58;;;;;;;5.60;4.32;;;;;;;21.49;61.19;100261.44;4946661;28;20106;-90
2023/09/07 08:11:26;;;;;;;5.05;4.55;;;;;;;21.52;61.25;100261.03;4932847;28;20117;-94
2023/09/07 08:13:53;;;;;;;8.80;4.38;;;;;;;21.53;60.68;100268.97;4960814;28;20066;-93
2023/09/07 08:16:21;;;;;;;7.22;4.63;;;;;;;21.56;60.54;100260.47;4949709;28;20134;-92
2023/09/07 08:18:48;;;;;;;5.28;4.28;;;;;;;21.61;60.64;100258.00;4947484;28;20556;-83
2023/09/07 08:21:16;;;;;;;6.47;4.20;;;;;;;21.64;60.69;100262.19;4933812;28;20047;-83
2023/09/07 08:23:44;;;;;;;5.55;4.72;;;;;;;21.68;60.52;100258.06;4964195;28;20063;-84
2023/09/07 08:26:12;;;;;;;5.88;4.07;;;;;;;21.67;60.26;100256.38;4946058;28;20125;-83
2023/09/07 08:28:40;;;;;;;4.22;3.83;;;;;;;21.73;60.33;100261.00;4919746;28;20050;-84
2023/09/07 08:31:07;;;;;;;6.00;4.00;;;;;;;21.74;60.27;100262.66;4929348;28;20082;-84
2023/09/07 08:33:39;;;;;;;5.57;4.53;;;;;;;21.78;60.21;100269.34;4925503;28;20388;-86
2023/09/07 08:36:08;;;;;;;4.15;3.63;;;;;;;21.82;60.24;100261.66;4945512;28;20054;-84
2023/09/07 08:38:35;;;;;;;5.85;4.80;;;;;;;21.85;60.23;100272.94;4895945;28;20113;-85
2023/09/07 08:41:05;;;;;;;4.38;3.97;;;;;;;21.89;60.15;100268.78;4943072;28;20047;-84
2023/09/07 08:43:45;;;;;;;5.82;4.15;;;;;;;21.89;59.55;100266.06;4963094;28;20034;-83
2023/09/07 08:46:14;;;;;;;5.20;4.30;;;;;;;21.96;59.78;100262.59;4919225;28;20566;-83
2023/09/07 08:48:42;;;;;;;4.88;4.20;;;;;;;21.97;59.83;100265.09;4950857;28;20122;-83
2023/09/07 08:51:13;;;;;;;6.15;4.85;;;;;;;22.00;59.55;100267.38;4941046;28;20062;-84
2023/09/07 08:53:40;;;;;;;5.28;4.22;;;;;;;22.01;59.84;100262.84;4943228;28;20057;-84
2023/09/07 08:56:09;;;;;;;5.32;3.85;;;;;;;22.04;59.46;100263.25;4958751;28;20042;-87
2023/09/07 08:58:36;;;;;;;5.18;3.90;;;;;;;22.05;59.51;100264.91;4931700;28;20099;-92
2023/09/07 09:01:03;;;;;;;5.03;4.50;;;;;;;22.07;59.38;100257.44;4933614;28;20487;-90
2023/09/07 09:03:35;;;;;;;7.63;4.30;;;;;;;22.11;59.33;100258.72;4947925;28;20045;-91
2023/09/07 09:06:06;;;;;;;5.13;4.60;;;;;;;22.13;59.54;100258.50;4965291;28;20042;-90
2023/09/07 09:08:50;;;;;;;5.80;4.30;;;;;;;22.10;59.46;100258.91;4937310;28;20062;-90
2023/09/07 09:11:18;;;;;;;6.53;4.45;;;;;;;22.19;59.28;100265.00;4937944;28;20051;-93
2023/09/07 09:13:45;;;;;;;5.28;4.30;;;;;;;22.22;59.30;100262.75;4941762;28;20086;-92
2023/09/07 09:16:15;;;;;;;4.43;3.97;;;;;;;22.25;59.44;100259.63;4961346;28;20376;-92
2023/09/07 09:18:56;;;;;;;4.43;4.00;;;;;;;22.24;59.28;100257.16;4930303;28;20144;-93
2023/09/07 09:21:25;;;;;;;4.65;4.03;;;;;;;22.27;59.55;100254.03;4929047;28;20451;-87
2023/09/07 09:23:54;;;;;;;5.45;4.72;;;;;;;22.32;59.63;100256.97;4943032;28;20043;-89
2023/09/07 09:26:21;;;;;;;4.45;4.05;;;;;;;22.34;59.62;100254.91;4917877;28;20046;-88
2023/09/07 09:28:50;;;;;;;6.45;4.68;;;;;;;22.38;59.38;100247.19;4958137;28;20066;-89
2023/09/07 09:31:17;;;;;;;5.70;4.18;;;;;;;22.39;59.24;100252.41;4920540;28;20054;-88
2023/09/07 09:33:48;;;;;;;5.38;4.28;;;;;;;22.41;59.37;100244.91;4941978;28;21401;-86
2023/09/07 09:36:15;;;;;;;6.57;4.50;;;;;;;22.44;59.35;100249.94;4914291;28;20725;-89
2023/09/07 09:38:47;;;;;;;4.72;4.32;;;;;;;22.46;59.14;100244.31;4945967;28;20051;-85
2023/09/07 09:41:15;;;;;;;4.33;3.93;;;;;;;22.50;59.20;100241.00;4957854;28;20597;-85
2023/09/07 09:43:42;;;;;;;5.20;4.70;;;;;;;22.51;59.30;100248.06;4949359;28;20047;-89
2023/09/07 09:46:08;;;;;;;5.18;4.68;;;;;;;22.54;58.76;100239.56;4912195;28;20947;-87
2023/09/07 09:48:36;;;;;;;5.18;4.68;;;;;;;22.58;59.09;100241.84;4940899;28;20051;-86
2023/09/07 09:51:04;;;;;;;5.80;4.18;;;;;;;22.60;59.77;100234.38;4928193;28;20491;-88
2023/09/07 09:53:31;;;;;;;5.82;4.25;;;;;;;22.59;59.22;100222.69;4941472;28;20047;-88
2023/09/07 09:55:58;;;;;;;4.82;4.15;;;;;;;22.63;59.89;100233.94;4956760;28;20138;-88
2023/09/07 09:58:25;;;;;;;5.82;4.50;;;;;;;22.63;59.47;100226.66;4940344;28;20047;-89
2023/09/07 10:00:58;;;;;;;5.00;3.80;;;;;;;22.67;58.92;100218.94;4930737;28;20125;-87
2023/09/07 10:03:33;;;;;;;6.45;4.40;;;;;;;22.67;58.60;100221.66;4932144;28;20070;-88
2023/09/07 10:06:18;;;;;;;5.60;4.25;;;;;;;22.68;58.70;100220.63;4946514;28;22347;-89
2023/09/07 10:08:59;;;;;;;5.78;4.25;;;;;;;22.68;58.69;100221.47;4933065;28;20050;-89
2023/09/07 10:11:29;;;;;;;5.22;4.18;;;;;;;22.76;58.63;100228.56;4961493;28;20134;-89
2023/09/07 10:13:58;;;;;;;7.18;5.13;;;;;;;22.78;58.32;100220.22;4928971;28;20680;-91
2023/09/07 10:16:26;;;;;;;7.00;4.40;;;;;;;22.80;58.05;100212.75;4966160;28;20043;-91
2023/09/07 10:18:56;;;;;;;5.00;4.45;;;;;;;22.90;57.89;100216.72;4930445;28;20057;-89
2023/09/07 10:21:26;;;;;;;5.85;4.80;;;;;;;22.93;57.40;100213.56;4955111;28;20049;-89
2023/09/07 10:23:53;;;;;;;5.38;4.60;;;;;;;22.92;58.17;100211.94;4944397;28;20051;-88
2023/09/07 10:26:21;;;;;;;6.03;4.57;;;;;;;23.01;57.66;100215.28;4922273;28;21859;-89
2023/09/07 10:28:59;;;;;;;6.65;4.65;;;;;;;22.95;57.17;100203.38;4930674;28;20050;-90
2023/09/07 10:31:26;;;;;;;5.25;4.70;;;;;;;23.03;57.15;100204.25;4953183;28;20510;-90
2023/09/07 10:34:13;;;;;;;6.38;4.70;;;;;;;23.04;57.37;100197.78;4913069;28;20054;-90
2023/09/07 10:36:40;;;;;;;5.00;4.50;;;;;;;23.07;57.67;100181.09;4958012;28;20074;-89
2023/09/07 10:39:07;;;;;;;9.02;4.90;;;;;;;23.15;57.96;100189.88;4938596;28;20427;-90
2023/09/07 10:41:42;;;;;;;4.82;4.22;;;;;;;23.21;57.22;100187.38;4930346;28;20074;-90
2023/09/07 10:44:13;;;;;;;5.47;4.13;;;;;;;23.24;56.82;100200.50;4927576;28;20106;-89
2023/09/07 10:46:40;;;;;;;8.50;4.47;;;;;;;23.28;56.81;100199.00;4947602;28;20058;-88
2023/09/07 10:49:12;;;;;;;6.68;4.53;;;;;;;23.32;56.94;100184.84;4928950;28;20055;-89
2023/09/07 10:51:43;;;;;;;4.80;4.20;;;;;;;23.33;56.90;100185.66;4937034;28;20969;-90
2023/09/07 10:54:17;;;;;;;5.18;4.45;;;;;;;23.37;55.95;100200.47;4941866;28;20057;-90
2023/09/07 10:56:45;;;;;;;6.28;4.85;;;;;;;23.36;56.21;100180.66;4945245;28;20146;-90
2023/09/07 10:59:15;;;;;;;5.75;4.28;;;;;;;23.40;56.34;100175.66;4957281;28;20046;-89
2023/09/07 11:01:46;;;;;;;6.03;4.60;;;;;;;23.43;56.54;100179.81;4944103;28;20095;-89
2023/09/07 11:04:13;;;;;;;6.25;4.40;;;;;;;23.44;56.60;100178.78;4946453;28;20114;-90
2023/09/07 11:06:40;;;;;;;5.18;4.68;;;;;;;23.49;56.88;100178.97;4922404;28;20051;-89
2023/09/07 11:09:10;;;;;;;7.32;4.72;;;;;;;23.52;56.66;100173.97;4937555;28;20055;-88
2023/09/07 11:11:38;;;;;;;5.28;4.60;;;;;;;23.56;55.94;100169.78;4942245;28;20051;-90
2023/09/07 11:14:05;;;;;;;6.20;4.65;;;;;;;23.66;55.66;100174.78;4931225;28;20042;-90
2023/09/07 11:16:33;;;;;;;9.60;4.35;;;;;;;23.65;55.59;100158.72;4914200;28;20070;-88
2023/09/07 11:19:04;;;;;;;5.18;4.38;;;;;;;23.70;54.18;100162.44;4941026;28;20140;-89
2023/09/07 11:21:35;;;;;;;6.03;4.38;;;;;;;23.77;55.06;100152.44;4931434;28;20035;-89
2023/09/07 11:24:06;;;;;;;6.28;4.60;;;;;;;23.79;55.07;100146.81;4946861;28;20043;-89
2023/09/07 11:26:44;;;;;;;5.15;4.30;;;;;;;23.77;54.99;100151.59;4938949;28;20138;-87
2023/09/07 11:29:18;;;;;;;7.00;4.10;;;;;;;23.82;54.92;100149.09;4925256;28;20111;-86